sensor_id;sensor_type;location;lat;lon;timestamp;temperature;humidity
820;DHT22;392;48.838;2.322;2022-07-21T00:00:27;22.50;52.00
820;DHT22;392;48.838;2.322;2022-07-21T00:02:55;22.60;52.00
820;DHT22;392;48.838;2.322;2022-07-21T00:05:25;22.60;51.80
820;DHT22;392;48.838;2.322;2022-07-21T00:07:53;22.70;51.50
820;DHT22;392;48.838;2.322;2022-07-21T00:10:24;22.70;50.90
820;DHT22;392;48.838;2.322;2022-07-21T00:12:53;22.70;51.00
820;DHT22;392;48.838;2.322;2022-07-21T00:15:23;22.70;50.70
820;DHT22;392;48.838;2.322;2022-07-21T00:17:53;22.60;51.10
820;DHT22;392;48.838;2.322;2022-07-21T00:20:21;22.60;52.10
820;DHT22;392;48.838;2.322;2022-07-21T00:22:50;22.50;52.70
820;DHT22;392;48.838;2.322;2022-07-21T00:25:17;22.40;52.80
820;DHT22;392;48.838;2.322;2022-07-21T00:27:45;22.40;52.90
820;DHT22;392;48.838;2.322;2022-07-21T00:30:13;22.50;52.30
820;DHT22;392;48.838;2.322;2022-07-21T00:32:42;22.60;51.50
820;DHT22;392;48.838;2.322;2022-07-21T00:35:11;22.60;51.30
820;DHT22;392;48.838;2.322;2022-07-21T00:37:39;22.70;50.70
820;DHT22;392;48.838;2.322;2022-07-21T00:40:10;22.60;51.10
820;DHT22;392;48.838;2.322;2022-07-21T00:42:39;22.50;51.90
820;DHT22;392;48.838;2.322;2022-07-21T00:45:08;22.40;52.60
820;DHT22;392;48.838;2.322;2022-07-21T00:47:37;22.30;53.50
820;DHT22;392;48.838;2.322;2022-07-21T00:50:08;22.30;53.60
820;DHT22;392;48.838;2.322;2022-07-21T00:52:38;22.20;53.80
820;DHT22;392;48.838;2.322;2022-07-21T00:55:07;22.20;54.70
820;DHT22;392;48.838;2.322;2022-07-21T00:57:39;22.20;55.20
820;DHT22;392;48.838;2.322;2022-07-21T01:00:09;22.20;54.70
820;DHT22;392;48.838;2.322;2022-07-21T01:02:39;22.30;54.50
820;DHT22;392;48.838;2.322;2022-07-21T01:05:09;22.30;53.90
820;DHT22;392;48.838;2.322;2022-07-21T01:07:40;22.30;54.40
820;DHT22;392;48.838;2.322;2022-07-21T01:10:10;22.30;54.50
820;DHT22;392;48.838;2.322;2022-07-21T01:12:38;22.30;54.40
820;DHT22;392;48.838;2.322;2022-07-21T01:15:08;22.20;54.60
820;DHT22;392;48.838;2.322;2022-07-21T01:17:37;22.20;55.30
820;DHT22;392;48.838;2.322;2022-07-21T01:20:07;22.20;55.30
820;DHT22;392;48.838;2.322;2022-07-21T01:22:39;22.10;55.90
820;DHT22;392;48.838;2.322;2022-07-21T01:25:08;22.10;55.80
820;DHT22;392;48.838;2.322;2022-07-21T01:27:36;22.00;55.90
820;DHT22;392;48.838;2.322;2022-07-21T01:30:06;22.10;56.20
820;DHT22;392;48.838;2.322;2022-07-21T01:32:34;22.20;56.20
820;DHT22;392;48.838;2.322;2022-07-21T01:35:03;22.20;55.60
820;DHT22;392;48.838;2.322;2022-07-21T01:37:33;22.20;55.70
820;DHT22;392;48.838;2.322;2022-07-21T01:40:06;22.10;55.90
820;DHT22;392;48.838;2.322;2022-07-21T01:42:51;22.10;55.70
820;DHT22;392;48.838;2.322;2022-07-21T01:45:19;22.10;56.30
820;DHT22;392;48.838;2.322;2022-07-21T01:47:46;22.00;56.80
820;DHT22;392;48.838;2.322;2022-07-21T01:50:14;21.90;57.20
820;DHT22;392;48.838;2.322;2022-07-21T01:52:42;21.80;57.20
820;DHT22;392;48.838;2.322;2022-07-21T01:55:10;21.80;57.70
820;DHT22;392;48.838;2.322;2022-07-21T01:57:38;21.80;58.30
820;DHT22;392;48.838;2.322;2022-07-21T02:00:06;21.80;57.70
820;DHT22;392;48.838;2.322;2022-07-21T02:02:35;21.90;57.00
820;DHT22;392;48.838;2.322;2022-07-21T02:05:03;21.90;56.50
820;DHT22;392;48.838;2.322;2022-07-21T02:07:30;21.90;56.10
820;DHT22;392;48.838;2.322;2022-07-21T02:09:58;21.90;55.70
820;DHT22;392;48.838;2.322;2022-07-21T02:12:26;22.00;55.90
820;DHT22;392;48.838;2.322;2022-07-21T02:14:54;22.00;55.10
820;DHT22;392;48.838;2.322;2022-07-21T02:17:21;22.00;55.10
820;DHT22;392;48.838;2.322;2022-07-21T02:19:49;22.00;55.50
820;DHT22;392;48.838;2.322;2022-07-21T02:22:16;21.90;55.80
820;DHT22;392;48.838;2.322;2022-07-21T02:24:43;21.90;55.80
820;DHT22;392;48.838;2.322;2022-07-21T02:27:10;21.80;56.10
820;DHT22;392;48.838;2.322;2022-07-21T02:29:39;21.80;56.00
820;DHT22;392;48.838;2.322;2022-07-21T02:32:07;21.80;56.00
820;DHT22;392;48.838;2.322;2022-07-21T02:34:35;21.80;55.50
820;DHT22;392;48.838;2.322;2022-07-21T02:37:02;21.90;55.40
820;DHT22;392;48.838;2.322;2022-07-21T02:39:30;21.90;55.00
820;DHT22;392;48.838;2.322;2022-07-21T02:41:57;22.00;54.40
820;DHT22;392;48.838;2.322;2022-07-21T02:44:25;22.10;54.80
820;DHT22;392;48.838;2.322;2022-07-21T02:46:54;22.30;52.70
820;DHT22;392;48.838;2.322;2022-07-21T02:49:21;22.60;50.70
820;DHT22;392;48.838;2.322;2022-07-21T02:51:48;22.90;48.80
820;DHT22;392;48.838;2.322;2022-07-21T02:54:16;23.00;47.00
820;DHT22;392;48.838;2.322;2022-07-21T02:56:43;23.20;46.80
820;DHT22;392;48.838;2.322;2022-07-21T02:59:10;23.30;46.20
820;DHT22;392;48.838;2.322;2022-07-21T03:01:37;23.30;45.50
820;DHT22;392;48.838;2.322;2022-07-21T03:04:06;23.30;45.10
820;DHT22;392;48.838;2.322;2022-07-21T03:06:33;23.30;45.20
820;DHT22;392;48.838;2.322;2022-07-21T03:09:02;23.20;45.30
820;DHT22;392;48.838;2.322;2022-07-21T03:11:30;23.20;45.70
820;DHT22;392;48.838;2.322;2022-07-21T03:13:57;23.10;46.00
820;DHT22;392;48.838;2.322;2022-07-21T03:16:25;23.10;46.10
820;DHT22;392;48.838;2.322;2022-07-21T03:18:52;23.10;46.10
820;DHT22;392;48.838;2.322;2022-07-21T03:21:21;23.10;46.00
820;DHT22;392;48.838;2.322;2022-07-21T03:23:48;23.20;45.80
820;DHT22;392;48.838;2.322;2022-07-21T03:26:16;23.20;45.50
820;DHT22;392;48.838;2.322;2022-07-21T03:28:43;23.20;45.20
820;DHT22;392;48.838;2.322;2022-07-21T03:31:11;23.20;45.50
820;DHT22;392;48.838;2.322;2022-07-21T03:33:38;23.30;45.60
820;DHT22;392;48.838;2.322;2022-07-21T03:36:06;23.30;46.00
820;DHT22;392;48.838;2.322;2022-07-21T03:38:35;23.30;45.10
820;DHT22;392;48.838;2.322;2022-07-21T03:41:03;23.30;44.70
820;DHT22;392;48.838;2.322;2022-07-21T03:43:30;23.20;45.30
820;DHT22;392;48.838;2.322;2022-07-21T03:45:57;23.10;46.10
820;DHT22;392;48.838;2.322;2022-07-21T03:48:25;23.10;46.10
820;DHT22;392;48.838;2.322;2022-07-21T03:50:52;23.10;46.30
820;DHT22;392;48.838;2.322;2022-07-21T03:53:19;23.10;47.10
820;DHT22;392;48.838;2.322;2022-07-21T03:55:48;23.10;46.80
820;DHT22;392;48.838;2.322;2022-07-21T03:58:15;23.10;46.80
820;DHT22;392;48.838;2.322;2022-07-21T04:00:44;23.10;46.20
820;DHT22;392;48.838;2.322;2022-07-21T04:03:12;23.00;46.30
820;DHT22;392;48.838;2.322;2022-07-21T04:05:41;23.00;46.70
820;DHT22;392;48.838;2.322;2022-07-21T04:08:10;23.00;46.70
820;DHT22;392;48.838;2.322;2022-07-21T04:10:40;23.00;46.50
820;DHT22;392;48.838;2.322;2022-07-21T04:13:12;22.90;46.50
820;DHT22;392;48.838;2.322;2022-07-21T04:15:40;22.70;47.50
820;DHT22;392;48.838;2.322;2022-07-21T04:18:08;22.60;48.80
820;DHT22;392;48.838;2.322;2022-07-21T04:20:36;22.70;48.90
820;DHT22;392;48.838;2.322;2022-07-21T04:23:03;22.70;48.20
820;DHT22;392;48.838;2.322;2022-07-21T04:25:31;22.80;47.70
820;DHT22;392;48.838;2.322;2022-07-21T04:27:58;22.60;47.60
820;DHT22;392;48.838;2.322;2022-07-21T04:30:27;22.60;48.40
820;DHT22;392;48.838;2.322;2022-07-21T04:32:55;22.60;48.30
820;DHT22;392;48.838;2.322;2022-07-21T04:35:22;22.70;48.30
820;DHT22;392;48.838;2.322;2022-07-21T04:37:50;22.80;48.00
820;DHT22;392;48.838;2.322;2022-07-21T04:40:17;22.80;47.20
820;DHT22;392;48.838;2.322;2022-07-21T04:42:46;22.80;47.40
820;DHT22;392;48.838;2.322;2022-07-21T04:45:15;22.90;47.30
820;DHT22;392;48.838;2.322;2022-07-21T04:47:46;22.90;46.90
820;DHT22;392;48.838;2.322;2022-07-21T04:50:17;22.90;47.00
820;DHT22;392;48.838;2.322;2022-07-21T04:52:45;22.90;47.00
820;DHT22;392;48.838;2.322;2022-07-21T04:55:13;22.90;47.60
820;DHT22;392;48.838;2.322;2022-07-21T04:57:42;22.90;46.70
820;DHT22;392;48.838;2.322;2022-07-21T05:00:14;22.90;47.10
820;DHT22;392;48.838;2.322;2022-07-21T05:02:44;22.90;46.70
820;DHT22;392;48.838;2.322;2022-07-21T05:05:13;22.80;47.00
820;DHT22;392;48.838;2.322;2022-07-21T05:07:40;22.60;47.60
820;DHT22;392;48.838;2.322;2022-07-21T05:10:09;22.60;48.40
820;DHT22;392;48.838;2.322;2022-07-21T05:12:38;22.60;48.50
820;DHT22;392;48.838;2.322;2022-07-21T05:15:08;22.60;48.40
820;DHT22;392;48.838;2.322;2022-07-21T05:17:37;22.60;48.00
820;DHT22;392;48.838;2.322;2022-07-21T05:20:07;22.50;49.10
820;DHT22;392;48.838;2.322;2022-07-21T05:22:35;22.50;49.30
820;DHT22;392;48.838;2.322;2022-07-21T05:25:03;22.50;49.40
820;DHT22;392;48.838;2.322;2022-07-21T05:27:31;22.60;49.40
820;DHT22;392;48.838;2.322;2022-07-21T05:29:59;22.60;49.00
820;DHT22;392;48.838;2.322;2022-07-21T05:32:26;22.70;48.30
820;DHT22;392;48.838;2.322;2022-07-21T05:34:54;22.90;48.00
820;DHT22;392;48.838;2.322;2022-07-21T05:37:22;22.90;47.30
820;DHT22;392;48.838;2.322;2022-07-21T05:39:50;23.00;47.00
820;DHT22;392;48.838;2.322;2022-07-21T05:42:17;23.10;46.10
820;DHT22;392;48.838;2.322;2022-07-21T05:44:44;23.10;46.10
820;DHT22;392;48.838;2.322;2022-07-21T05:47:11;23.20;46.10
820;DHT22;392;48.838;2.322;2022-07-21T05:49:39;23.20;45.70
820;DHT22;392;48.838;2.322;2022-07-21T05:52:06;23.20;45.50
820;DHT22;392;48.838;2.322;2022-07-21T05:54:35;23.10;45.40
820;DHT22;392;48.838;2.322;2022-07-21T05:57:02;23.00;46.20
820;DHT22;392;48.838;2.322;2022-07-21T05:59:30;22.90;46.90
820;DHT22;392;48.838;2.322;2022-07-21T06:01:58;23.00;47.50
820;DHT22;392;48.838;2.322;2022-07-21T06:04:26;23.00;47.40
820;DHT22;392;48.838;2.322;2022-07-21T06:06:53;23.10;46.10
820;DHT22;392;48.838;2.322;2022-07-21T06:09:21;23.00;46.00
820;DHT22;392;48.838;2.322;2022-07-21T06:11:49;22.90;46.90
820;DHT22;392;48.838;2.322;2022-07-21T06:14:17;22.70;47.80
820;DHT22;392;48.838;2.322;2022-07-21T06:16:44;22.70;48.70
820;DHT22;392;48.838;2.322;2022-07-21T06:19:11;22.70;48.70
820;DHT22;392;48.838;2.322;2022-07-21T06:21:39;22.60;49.60
820;DHT22;392;48.838;2.322;2022-07-21T06:24:07;22.50;50.50
820;DHT22;392;48.838;2.322;2022-07-21T06:26:34;22.60;49.10
820;DHT22;392;48.838;2.322;2022-07-21T06:29:03;22.60;49.80
820;DHT22;392;48.838;2.322;2022-07-21T06:31:32;22.60;49.70
820;DHT22;392;48.838;2.322;2022-07-21T06:33:59;22.70;49.30
820;DHT22;392;48.838;2.322;2022-07-21T06:36:26;22.70;48.50
820;DHT22;392;48.838;2.322;2022-07-21T06:38:53;22.60;48.60
820;DHT22;392;48.838;2.322;2022-07-21T06:41:21;22.60;49.90
820;DHT22;392;48.838;2.322;2022-07-21T06:43:48;22.60;50.50
820;DHT22;392;48.838;2.322;2022-07-21T06:46:17;22.70;50.70
820;DHT22;392;48.838;2.322;2022-07-21T06:48:44;22.90;49.40
820;DHT22;392;48.838;2.322;2022-07-21T06:51:12;23.00;48.30
820;DHT22;392;48.838;2.322;2022-07-21T06:53:39;23.20;47.10
820;DHT22;392;48.838;2.322;2022-07-21T06:56:08;23.30;46.30
820;DHT22;392;48.838;2.322;2022-07-21T06:58:35;23.60;45.30
820;DHT22;392;48.838;2.322;2022-07-21T07:01:02;23.80;43.90
820;DHT22;392;48.838;2.322;2022-07-21T07:03:31;23.80;43.20
820;DHT22;392;48.838;2.322;2022-07-21T07:05:59;23.70;43.40
820;DHT22;392;48.838;2.322;2022-07-21T07:08:26;23.60;44.20
820;DHT22;392;48.838;2.322;2022-07-21T07:10:54;23.60;44.20
820;DHT22;392;48.838;2.322;2022-07-21T07:13:21;23.60;44.30
820;DHT22;392;48.838;2.322;2022-07-21T07:15:48;23.60;44.30
820;DHT22;392;48.838;2.322;2022-07-21T07:18:16;23.50;44.50
820;DHT22;392;48.838;2.322;2022-07-21T07:20:47;23.50;44.50
820;DHT22;392;48.838;2.322;2022-07-21T07:23:15;23.50;44.70
820;DHT22;392;48.838;2.322;2022-07-21T07:25:42;23.40;45.30
820;DHT22;392;48.838;2.322;2022-07-21T07:28:10;23.40;45.40
820;DHT22;392;48.838;2.322;2022-07-21T07:30:37;23.40;45.80
820;DHT22;392;48.838;2.322;2022-07-21T07:33:04;23.30;45.60
820;DHT22;392;48.838;2.322;2022-07-21T07:35:32;23.40;45.50
820;DHT22;392;48.838;2.322;2022-07-21T07:38:01;23.40;45.40
820;DHT22;392;48.838;2.322;2022-07-21T07:40:28;23.50;45.00
820;DHT22;392;48.838;2.322;2022-07-21T07:42:56;23.50;44.80
820;DHT22;392;48.838;2.322;2022-07-21T07:45:24;23.50;44.90
820;DHT22;392;48.838;2.322;2022-07-21T07:47:53;23.50;44.90
820;DHT22;392;48.838;2.322;2022-07-21T07:50:20;23.50;44.90
820;DHT22;392;48.838;2.322;2022-07-21T07:52:48;23.60;44.50
820;DHT22;392;48.838;2.322;2022-07-21T07:55:16;23.70;44.10
820;DHT22;392;48.838;2.322;2022-07-21T07:57:44;23.80;43.60
820;DHT22;392;48.838;2.322;2022-07-21T08:00:14;23.90;43.50
820;DHT22;392;48.838;2.322;2022-07-21T08:02:43;23.80;42.90
820;DHT22;392;48.838;2.322;2022-07-21T08:05:11;23.80;43.60
820;DHT22;392;48.838;2.322;2022-07-21T08:07:39;23.80;43.30
820;DHT22;392;48.838;2.322;2022-07-21T08:10:10;23.90;43.00
820;DHT22;392;48.838;2.322;2022-07-21T08:12:40;24.00;42.80
820;DHT22;392;48.838;2.322;2022-07-21T08:15:09;24.00;42.20
820;DHT22;392;48.838;2.322;2022-07-21T08:17:36;24.00;42.50
820;DHT22;392;48.838;2.322;2022-07-21T08:20:05;24.00;42.60
820;DHT22;392;48.838;2.322;2022-07-21T08:22:32;24.00;42.60
820;DHT22;392;48.838;2.322;2022-07-21T08:25:00;24.00;42.40
820;DHT22;392;48.838;2.322;2022-07-21T08:27:27;24.00;42.40
820;DHT22;392;48.838;2.322;2022-07-21T08:29:56;24.00;42.30
820;DHT22;392;48.838;2.322;2022-07-21T08:32:23;24.00;41.80
820;DHT22;392;48.838;2.322;2022-07-21T08:34:51;24.00;42.10
820;DHT22;392;48.838;2.322;2022-07-21T08:37:19;24.00;41.80
820;DHT22;392;48.838;2.322;2022-07-21T08:39:47;24.10;41.90
820;DHT22;392;48.838;2.322;2022-07-21T08:42:15;24.20;41.90
820;DHT22;392;48.838;2.322;2022-07-21T08:44:42;24.30;41.70
820;DHT22;392;48.838;2.322;2022-07-21T08:47:11;24.40;41.10
820;DHT22;392;48.838;2.322;2022-07-21T08:49:39;24.60;40.90
820;DHT22;392;48.838;2.322;2022-07-21T08:52:07;24.80;40.40
820;DHT22;392;48.838;2.322;2022-07-21T08:54:34;25.00;38.40
820;DHT22;392;48.838;2.322;2022-07-21T08:57:01;25.20;37.60
820;DHT22;392;48.838;2.322;2022-07-21T08:59:29;25.30;37.40
820;DHT22;392;48.838;2.322;2022-07-21T09:01:56;25.50;36.30
820;DHT22;392;48.838;2.322;2022-07-21T09:04:27;25.70;35.60
820;DHT22;392;48.838;2.322;2022-07-21T09:06:57;26.10;34.80
820;DHT22;392;48.838;2.322;2022-07-21T09:09:26;26.90;32.20
820;DHT22;392;48.838;2.322;2022-07-21T09:11:56;27.90;29.70
820;DHT22;392;48.838;2.322;2022-07-21T09:14:25;28.80;26.90
820;DHT22;392;48.838;2.322;2022-07-21T09:16:58;29.20;25.80
820;DHT22;392;48.838;2.322;2022-07-21T09:19:30;29.50;25.20
820;DHT22;392;48.838;2.322;2022-07-21T09:22:01;29.90;24.10
820;DHT22;392;48.838;2.322;2022-07-21T09:24:31;30.40;23.00
820;DHT22;392;48.838;2.322;2022-07-21T09:27:08;30.30;22.50
820;DHT22;392;48.838;2.322;2022-07-21T09:29:42;29.70;23.70
820;DHT22;392;48.838;2.322;2022-07-21T09:32:17;29.20;24.60
820;DHT22;392;48.838;2.322;2022-07-21T09:34:49;28.70;25.40
820;DHT22;392;48.838;2.322;2022-07-21T09:37:18;28.30;26.20
820;DHT22;392;48.838;2.322;2022-07-21T09:39:48;27.90;26.70
820;DHT22;392;48.838;2.322;2022-07-21T09:42:19;27.70;27.50
820;DHT22;392;48.838;2.322;2022-07-21T09:44:52;27.60;28.00
820;DHT22;392;48.838;2.322;2022-07-21T09:47:22;28.00;27.00
820;DHT22;392;48.838;2.322;2022-07-21T09:49:52;28.30;26.10
820;DHT22;392;48.838;2.322;2022-07-21T09:52:22;28.10;26.00
820;DHT22;392;48.838;2.322;2022-07-21T09:54:53;28.00;26.50
820;DHT22;392;48.838;2.322;2022-07-21T09:57:21;28.20;26.20
820;DHT22;392;48.838;2.322;2022-07-21T09:59:49;29.00;25.10
820;DHT22;392;48.838;2.322;2022-07-21T10:02:19;29.60;23.30
820;DHT22;392;48.838;2.322;2022-07-21T10:04:58;30.20;22.50
820;DHT22;392;48.838;2.322;2022-07-21T10:07:27;30.80;21.40
820;DHT22;392;48.838;2.322;2022-07-21T10:09:56;31.00;21.50
820;DHT22;392;48.838;2.322;2022-07-21T10:12:25;30.80;20.90
820;DHT22;392;48.838;2.322;2022-07-21T10:14:54;30.60;21.50
820;DHT22;392;48.838;2.322;2022-07-21T10:17:23;30.80;20.40
820;DHT22;392;48.838;2.322;2022-07-21T10:20:04;31.20;19.90
820;DHT22;392;48.838;2.322;2022-07-21T10:22:44;31.80;19.10
820;DHT22;392;48.838;2.322;2022-07-21T10:25:21;32.60;18.40
820;DHT22;392;48.838;2.322;2022-07-21T10:28:11;33.50;16.40
820;DHT22;392;48.838;2.322;2022-07-21T10:30:41;34.40;15.10
820;DHT22;392;48.838;2.322;2022-07-21T10:33:10;34.70;13.90
820;DHT22;392;48.838;2.322;2022-07-21T10:35:41;34.30;14.30
820;DHT22;392;48.838;2.322;2022-07-21T10:38:25;34.20;14.50
820;DHT22;392;48.838;2.322;2022-07-21T10:40:55;34.30;14.50
820;DHT22;392;48.838;2.322;2022-07-21T10:43:42;34.30;14.10
820;DHT22;392;48.838;2.322;2022-07-21T10:46:32;34.30;14.20
820;DHT22;392;48.838;2.322;2022-07-21T10:49:04;34.10;14.20
820;DHT22;392;48.838;2.322;2022-07-21T10:51:34;33.40;15.00
820;DHT22;392;48.838;2.322;2022-07-21T10:54:23;32.40;16.50
820;DHT22;392;48.838;2.322;2022-07-21T10:57:27;31.80;17.90
820;DHT22;392;48.838;2.322;2022-07-21T11:00:21;31.60;17.80
820;DHT22;392;48.838;2.322;2022-07-21T11:02:52;31.50;18.30
820;DHT22;392;48.838;2.322;2022-07-21T11:05:22;31.70;17.70
820;DHT22;392;48.838;2.322;2022-07-21T11:08:15;31.80;17.40
820;DHT22;392;48.838;2.322;2022-07-21T11:10:48;32.30;16.80
820;DHT22;392;48.838;2.322;2022-07-21T11:13:17;32.70;16.30
820;DHT22;392;48.838;2.322;2022-07-21T11:15:56;33.10;15.10
820;DHT22;392;48.838;2.322;2022-07-21T11:18:26;33.30;14.90
820;DHT22;392;48.838;2.322;2022-07-21T11:21:10;33.80;14.10
820;DHT22;392;48.838;2.322;2022-07-21T11:23:42;34.40;13.40
820;DHT22;392;48.838;2.322;2022-07-21T11:26:13;35.00;12.50
820;DHT22;392;48.838;2.322;2022-07-21T11:28:42;35.30;11.60
820;DHT22;392;48.838;2.322;2022-07-21T11:31:14;35.70;12.00
820;DHT22;392;48.838;2.322;2022-07-21T11:33:45;36.20;10.50
820;DHT22;392;48.838;2.322;2022-07-21T11:36:25;35.80;10.70
820;DHT22;392;48.838;2.322;2022-07-21T11:39:00;34.80;11.90
820;DHT22;392;48.838;2.322;2022-07-21T11:41:30;34.10;12.80
820;DHT22;392;48.838;2.322;2022-07-21T11:43:57;34.10;12.80
820;DHT22;392;48.838;2.322;2022-07-21T11:46:25;33.80;13.10
820;DHT22;392;48.838;2.322;2022-07-21T11:49:03;33.20;13.80
820;DHT22;392;48.838;2.322;2022-07-21T11:51:32;32.30;14.50
820;DHT22;392;48.838;2.322;2022-07-21T11:54:00;31.40;16.30
820;DHT22;392;48.838;2.322;2022-07-21T11:56:28;30.80;16.90
820;DHT22;392;48.838;2.322;2022-07-21T11:59:10;30.40;17.80
820;DHT22;392;48.838;2.322;2022-07-21T12:01:51;30.30;18.00
820;DHT22;392;48.838;2.322;2022-07-21T12:04:28;30.10;18.40
820;DHT22;392;48.838;2.322;2022-07-21T12:07:04;29.80;19.00
820;DHT22;392;48.838;2.322;2022-07-21T12:09:34;29.40;19.30
820;DHT22;392;48.838;2.322;2022-07-21T12:12:02;28.90;20.80
820;DHT22;392;48.838;2.322;2022-07-21T12:14:46;28.60;21.10
820;DHT22;392;48.838;2.322;2022-07-21T12:17:31;28.40;21.10
820;DHT22;392;48.838;2.322;2022-07-21T12:19:59;28.20;21.50
820;DHT22;392;48.838;2.322;2022-07-21T12:22:38;28.10;21.80
820;DHT22;392;48.838;2.322;2022-07-21T12:25:11;27.80;22.90
820;DHT22;392;48.838;2.322;2022-07-21T12:27:41;27.70;23.30
820;DHT22;392;48.838;2.322;2022-07-21T12:30:29;27.90;23.20
820;DHT22;392;48.838;2.322;2022-07-21T12:33:04;28.40;22.00
820;DHT22;392;48.838;2.322;2022-07-21T12:35:34;29.00;21.40
820;DHT22;392;48.838;2.322;2022-07-21T12:38:04;29.50;20.00
820;DHT22;392;48.838;2.322;2022-07-21T12:40:36;29.70;19.10
820;DHT22;392;48.838;2.322;2022-07-21T12:43:06;29.90;19.00
820;DHT22;392;48.838;2.322;2022-07-21T12:45:47;30.50;17.80
820;DHT22;392;48.838;2.322;2022-07-21T12:48:18;30.90;17.40
820;DHT22;392;48.838;2.322;2022-07-21T12:51:05;30.80;17.20
820;DHT22;392;48.838;2.322;2022-07-21T12:53:39;30.60;17.60
820;DHT22;392;48.838;2.322;2022-07-21T12:56:11;30.40;18.30
820;DHT22;392;48.838;2.322;2022-07-21T12:58:39;30.60;17.70
820;DHT22;392;48.838;2.322;2022-07-21T13:01:07;30.90;16.60
820;DHT22;392;48.838;2.322;2022-07-21T13:03:35;30.80;16.40
820;DHT22;392;48.838;2.322;2022-07-21T13:06:04;30.60;16.60
820;DHT22;392;48.838;2.322;2022-07-21T13:08:33;30.40;17.30
820;DHT22;392;48.838;2.322;2022-07-21T13:11:01;30.10;17.60
820;DHT22;392;48.838;2.322;2022-07-21T13:13:32;29.90;17.90
820;DHT22;392;48.838;2.322;2022-07-21T13:15:59;30.00;17.50
820;DHT22;392;48.838;2.322;2022-07-21T13:18:27;30.00;17.50
820;DHT22;392;48.838;2.322;2022-07-21T13:20:54;30.00;18.10
820;DHT22;392;48.838;2.322;2022-07-21T13:23:22;29.90;17.50
820;DHT22;392;48.838;2.322;2022-07-21T13:25:50;29.80;17.80
820;DHT22;392;48.838;2.322;2022-07-21T13:28:17;29.60;18.20
820;DHT22;392;48.838;2.322;2022-07-21T13:30:47;29.50;17.50
820;DHT22;392;48.838;2.322;2022-07-21T13:33:14;29.50;18.00
820;DHT22;392;48.838;2.322;2022-07-21T13:35:42;29.40;17.90
820;DHT22;392;48.838;2.322;2022-07-21T13:38:10;29.40;18.00
820;DHT22;392;48.838;2.322;2022-07-21T13:40:38;29.40;17.60
820;DHT22;392;48.838;2.322;2022-07-21T13:43:05;29.30;18.70
820;DHT22;392;48.838;2.322;2022-07-21T13:45:33;29.10;18.20
820;DHT22;392;48.838;2.322;2022-07-21T13:48:01;29.20;18.10
820;DHT22;392;48.838;2.322;2022-07-21T13:50:29;29.30;18.00
820;DHT22;392;48.838;2.322;2022-07-21T13:52:56;29.40;18.70
820;DHT22;392;48.838;2.322;2022-07-21T13:55:24;29.40;18.30
820;DHT22;392;48.838;2.322;2022-07-21T13:57:51;29.50;19.00
820;DHT22;392;48.838;2.322;2022-07-21T14:00:19;29.50;19.00
820;DHT22;392;48.838;2.322;2022-07-21T14:02:46;29.50;19.00
820;DHT22;392;48.838;2.322;2022-07-21T14:05:15;29.40;18.90
820;DHT22;392;48.838;2.322;2022-07-21T14:07:42;29.30;19.30
820;DHT22;392;48.838;2.322;2022-07-21T14:10:10;29.20;19.60
820;DHT22;392;48.838;2.322;2022-07-21T14:12:37;29.00;19.80
820;DHT22;392;48.838;2.322;2022-07-21T14:15:05;28.90;19.90
820;DHT22;392;48.838;2.322;2022-07-21T14:17:33;28.80;20.00
820;DHT22;392;48.838;2.322;2022-07-21T14:20:01;28.70;20.00
820;DHT22;392;48.838;2.322;2022-07-21T14:22:30;28.60;20.10
820;DHT22;392;48.838;2.322;2022-07-21T14:24:57;28.60;20.30
820;DHT22;392;48.838;2.322;2022-07-21T14:27:42;28.50;20.40
820;DHT22;392;48.838;2.322;2022-07-21T14:30:10;28.50;20.20
820;DHT22;392;48.838;2.322;2022-07-21T14:32:37;28.40;20.30
820;DHT22;392;48.838;2.322;2022-07-21T14:35:05;28.40;20.60
820;DHT22;392;48.838;2.322;2022-07-21T14:37:35;28.50;20.60
820;DHT22;392;48.838;2.322;2022-07-21T14:40:03;28.60;20.20
820;DHT22;392;48.838;2.322;2022-07-21T14:42:31;28.70;20.10
820;DHT22;392;48.838;2.322;2022-07-21T14:44:59;28.80;19.70
820;DHT22;392;48.838;2.322;2022-07-21T14:47:26;28.90;19.60
820;DHT22;392;48.838;2.322;2022-07-21T14:49:55;29.00;19.40
820;DHT22;392;48.838;2.322;2022-07-21T14:52:23;29.10;19.00
820;DHT22;392;48.838;2.322;2022-07-21T14:54:52;29.20;18.90
820;DHT22;392;48.838;2.322;2022-07-21T14:57:19;29.30;18.90
820;DHT22;392;48.838;2.322;2022-07-21T14:59:46;29.30;19.20
820;DHT22;392;48.838;2.322;2022-07-21T15:02:14;29.30;18.40
820;DHT22;392;48.838;2.322;2022-07-21T15:04:41;29.30;18.20
820;DHT22;392;48.838;2.322;2022-07-21T15:07:09;29.20;18.40
820;DHT22;392;48.838;2.322;2022-07-21T15:09:37;29.30;18.40
820;DHT22;392;48.838;2.322;2022-07-21T15:12:06;29.40;18.00
820;DHT22;392;48.838;2.322;2022-07-21T15:14:33;29.20;18.20
820;DHT22;392;48.838;2.322;2022-07-21T15:17:01;29.10;18.40
820;DHT22;392;48.838;2.322;2022-07-21T15:19:28;29.00;18.60
820;DHT22;392;48.838;2.322;2022-07-21T15:21:56;29.00;19.40
820;DHT22;392;48.838;2.322;2022-07-21T15:24:24;29.00;18.70
820;DHT22;392;48.838;2.322;2022-07-21T15:26:51;29.00;18.60
820;DHT22;392;48.838;2.322;2022-07-21T15:29:20;29.10;18.40
820;DHT22;392;48.838;2.322;2022-07-21T15:31:47;29.20;18.30
820;DHT22;392;48.838;2.322;2022-07-21T15:34:14;29.20;18.10
820;DHT22;392;48.838;2.322;2022-07-21T15:36:42;29.10;18.50
820;DHT22;392;48.838;2.322;2022-07-21T15:39:09;29.10;18.10
820;DHT22;392;48.838;2.322;2022-07-21T15:41:38;29.10;17.90
820;DHT22;392;48.838;2.322;2022-07-21T15:44:05;29.10;17.40
820;DHT22;392;48.838;2.322;2022-07-21T15:46:34;29.20;17.70
820;DHT22;392;48.838;2.322;2022-07-21T15:49:02;29.20;17.70
820;DHT22;392;48.838;2.322;2022-07-21T15:51:31;29.20;17.90
820;DHT22;392;48.838;2.322;2022-07-21T15:53:59;29.20;17.80
820;DHT22;392;48.838;2.322;2022-07-21T15:56:26;29.20;17.90
820;DHT22;392;48.838;2.322;2022-07-21T15:58:53;29.20;17.70
820;DHT22;392;48.838;2.322;2022-07-21T16:01:39;29.20;17.10
820;DHT22;392;48.838;2.322;2022-07-21T16:04:07;29.20;17.10
820;DHT22;392;48.838;2.322;2022-07-21T16:06:35;29.10;17.00
820;DHT22;392;48.838;2.322;2022-07-21T16:09:03;29.10;17.00
820;DHT22;392;48.838;2.322;2022-07-21T16:11:31;29.10;17.40
820;DHT22;392;48.838;2.322;2022-07-21T16:13:58;29.30;17.10
820;DHT22;392;48.838;2.322;2022-07-21T16:16:26;29.50;17.10
820;DHT22;392;48.838;2.322;2022-07-21T16:18:56;29.60;16.60
820;DHT22;392;48.838;2.322;2022-07-21T16:21:23;29.60;17.20
820;DHT22;392;48.838;2.322;2022-07-21T16:23:50;29.60;17.30
820;DHT22;392;48.838;2.322;2022-07-21T16:26:18;29.50;17.50
820;DHT22;392;48.838;2.322;2022-07-21T16:28:45;29.50;17.60
820;DHT22;392;48.838;2.322;2022-07-21T16:31:12;29.50;17.80
820;DHT22;392;48.838;2.322;2022-07-21T16:33:42;29.40;17.70
820;DHT22;392;48.838;2.322;2022-07-21T16:36:10;29.40;17.70
820;DHT22;392;48.838;2.322;2022-07-21T16:38:39;29.50;17.70
820;DHT22;392;48.838;2.322;2022-07-21T16:41:07;29.60;17.30
820;DHT22;392;48.838;2.322;2022-07-21T16:43:34;29.60;17.30
820;DHT22;392;48.838;2.322;2022-07-21T16:46:01;29.60;17.30
820;DHT22;392;48.838;2.322;2022-07-21T16:48:29;29.70;17.00